Soap Lake, Washington
Current Conditions -  °F | °C
As of 1:53 AM on Monday 22 Dec 2014 (Local Time) from KEPH Reporting Station
Clear Clear  
Wind Chill: 29°   Ceiling: Unl
Heat Index: 35°   Visibility: 10mi
Dew Point: 31°   Wind: 7mph
Humidity: 85%   Direction: 200°SSW
Pressure: 30.03"   Gusts: NA
Location:  47.39°N, 119.49°W
Report Text: KEPH 220953Z AUTO 20006KT 10SM CLR 02/M01 A3003 RMK AO2 SLP176 T00171006
Loading
Personal Weather Stations






























Interactive Weather Map New forecast layout! Learn more

10-Day Weather Forecast

Advertisements
Track Severe Weather on mobile